sensor_id;sensor_type;location;lat;lon;timestamp;P1;durP1;ratioP1;P2;durP2;ratioP2
29574;SDS011;16507;51.046;6.406;2023-03-01T00:01:21;13.60;;;7.28;;
29574;SDS011;16507;51.046;6.406;2023-03-01T00:03:51;9.25;;;6.53;;
29574;SDS011;16507;51.046;6.406;2023-03-01T00:06:18;15.45;;;6.80;;
29574;SDS011;16507;51.046;6.406;2023-03-01T00:08:45;10.30;;;6.60;;
29574;SDS011;16507;51.046;6.406;2023-03-01T00:13:45;14.35;;;7.03;;
29574;SDS011;16507;51.046;6.406;2023-03-01T00:16:13;10.35;;;6.50;;
29574;SDS011;16507;51.046;6.406;2023-03-01T00:18:41;20.83;;;6.88;;
29574;SDS011;16507;51.046;6.406;2023-03-01T00:21:07;19.38;;;7.88;;
29574;SDS011;16507;51.046;6.406;2023-03-01T00:23:36;20.80;;;7.78;;
29574;SDS011;16507;51.046;6.406;2023-03-01T00:26:05;14.73;;;6.80;;
29574;SDS011;16507;51.046;6.406;2023-03-01T00:28:31;15.68;;;7.22;;
29574;SDS011;16507;51.046;6.406;2023-03-01T00:31:02;12.88;;;7.28;;
29574;SDS011;16507;51.046;6.406;2023-03-01T00:33:29;17.88;;;7.45;;
29574;SDS011;16507;51.046;6.406;2023-03-01T00:35:57;16.92;;;7.53;;
29574;SDS011;16507;51.046;6.406;2023-03-01T00:38:23;10.63;;;7.53;;
29574;SDS011;16507;51.046;6.406;2023-03-01T00:40:49;17.88;;;8.60;;
29574;SDS011;16507;51.046;6.406;2023-03-01T00:43:14;13.57;;;8.02;;
29574;SDS011;16507;51.046;6.406;2023-03-01T00:45:40;22.80;;;8.95;;
29574;SDS011;16507;51.046;6.406;2023-03-01T00:48:06;11.82;;;8.32;;
29574;SDS011;16507;51.046;6.406;2023-03-01T00:50:31;12.25;;;7.95;;
29574;SDS011;16507;51.046;6.406;2023-03-01T00:52:57;13.02;;;7.88;;
29574;SDS011;16507;51.046;6.406;2023-03-01T00:55:23;18.23;;;8.73;;
29574;SDS011;16507;51.046;6.406;2023-03-01T00:57:49;11.02;;;8.55;;
29574;SDS011;16507;51.046;6.406;2023-03-01T01:00:15;12.48;;;7.70;;
29574;SDS011;16507;51.046;6.406;2023-03-01T01:02:41;17.13;;;8.27;;
29574;SDS011;16507;51.046;6.406;2023-03-01T01:05:07;11.60;;;8.02;;
29574;SDS011;16507;51.046;6.406;2023-03-01T01:07:33;11.35;;;8.00;;
29574;SDS011;16507;51.046;6.406;2023-03-01T01:09:58;14.55;;;8.05;;
29574;SDS011;16507;51.046;6.406;2023-03-01T01:12:24;13.02;;;7.85;;
29574;SDS011;16507;51.046;6.406;2023-03-01T01:14:50;10.48;;;8.05;;
29574;SDS011;16507;51.046;6.406;2023-03-01T01:17:15;11.30;;;8.00;;
29574;SDS011;16507;51.046;6.406;2023-03-01T01:19:41;15.18;;;8.30;;
29574;SDS011;16507;51.046;6.406;2023-03-01T01:22:07;17.92;;;8.35;;
29574;SDS011;16507;51.046;6.406;2023-03-01T01:24:32;19.08;;;9.25;;
29574;SDS011;16507;51.046;6.406;2023-03-01T01:26:58;17.48;;;8.55;;
29574;SDS011;16507;51.046;6.406;2023-03-01T01:29:24;19.88;;;8.02;;
29574;SDS011;16507;51.046;6.406;2023-03-01T01:31:49;15.75;;;8.73;;
29574;SDS011;16507;51.046;6.406;2023-03-01T01:34:16;18.50;;;8.88;;
29574;SDS011;16507;51.046;6.406;2023-03-01T01:36:48;22.48;;;8.40;;
29574;SDS011;16507;51.046;6.406;2023-03-01T01:39:15;27.42;;;8.35;;
29574;SDS011;16507;51.046;6.406;2023-03-01T01:41:41;17.10;;;8.25;;
29574;SDS011;16507;51.046;6.406;2023-03-01T01:44:18;21.90;;;8.70;;
29574;SDS011;16507;51.046;6.406;2023-03-01T01:52:00;26.30;;;8.02;;
29574;SDS011;16507;51.046;6.406;2023-03-01T01:57:26;21.40;;;9.20;;
29574;SDS011;16507;51.046;6.406;2023-03-01T01:59:58;25.48;;;9.15;;
29574;SDS011;16507;51.046;6.406;2023-03-01T02:02:27;21.08;;;8.93;;
29574;SDS011;16507;51.046;6.406;2023-03-01T02:04:56;21.05;;;9.13;;
29574;SDS011;16507;51.046;6.406;2023-03-01T02:07:36;22.08;;;8.65;;
29574;SDS011;16507;51.046;6.406;2023-03-01T02:10:05;25.75;;;9.18;;
29574;SDS011;16507;51.046;6.406;2023-03-01T02:12:31;18.60;;;9.43;;
29574;SDS011;16507;51.046;6.406;2023-03-01T02:14:58;17.20;;;8.68;;
29574;SDS011;16507;51.046;6.406;2023-03-01T02:17:24;21.83;;;8.48;;
29574;SDS011;16507;51.046;6.406;2023-03-01T02:22:25;16.90;;;8.70;;
29574;SDS011;16507;51.046;6.406;2023-03-01T02:28:08;34.05;;;9.80;;
29574;SDS011;16507;51.046;6.406;2023-03-01T02:30:39;16.90;;;8.57;;
29574;SDS011;16507;51.046;6.406;2023-03-01T02:33:26;18.85;;;9.05;;
29574;SDS011;16507;51.046;6.406;2023-03-01T02:35:52;21.20;;;10.07;;
29574;SDS011;16507;51.046;6.406;2023-03-01T02:38:19;18.95;;;9.18;;
29574;SDS011;16507;51.046;6.406;2023-03-01T02:40:45;28.60;;;9.85;;
29574;SDS011;16507;51.046;6.406;2023-03-01T02:43:11;19.38;;;9.10;;
29574;SDS011;16507;51.046;6.406;2023-03-01T02:45:38;20.65;;;9.27;;
29574;SDS011;16507;51.046;6.406;2023-03-01T02:48:12;15.35;;;9.18;;
29574;SDS011;16507;51.046;6.406;2023-03-01T02:53:39;15.18;;;9.30;;
29574;SDS011;16507;51.046;6.406;2023-03-01T02:56:13;13.88;;;9.48;;
29574;SDS011;16507;51.046;6.406;2023-03-01T02:58:42;14.90;;;9.15;;
29574;SDS011;16507;51.046;6.406;2023-03-01T03:01:16;20.40;;;9.88;;
29574;SDS011;16507;51.046;6.406;2023-03-01T03:03:42;26.63;;;10.05;;
29574;SDS011;16507;51.046;6.406;2023-03-01T03:06:08;17.13;;;9.48;;
29574;SDS011;16507;51.046;6.406;2023-03-01T03:08:34;22.67;;;10.23;;
29574;SDS011;16507;51.046;6.406;2023-03-01T03:11:00;16.60;;;10.13;;
29574;SDS011;16507;51.046;6.406;2023-03-01T03:13:26;16.73;;;9.63;;
29574;SDS011;16507;51.046;6.406;2023-03-01T03:15:53;20.58;;;9.85;;
29574;SDS011;16507;51.046;6.406;2023-03-01T03:18:22;21.27;;;10.68;;
29574;SDS011;16507;51.046;6.406;2023-03-01T03:20:52;18.67;;;9.80;;
29574;SDS011;16507;51.046;6.406;2023-03-01T03:23:19;15.38;;;9.80;;
29574;SDS011;16507;51.046;6.406;2023-03-01T03:25:47;21.63;;;10.95;;
29574;SDS011;16507;51.046;6.406;2023-03-01T03:28:14;13.20;;;9.25;;
29574;SDS011;16507;51.046;6.406;2023-03-01T03:30:41;20.65;;;10.48;;
29574;SDS011;16507;51.046;6.406;2023-03-01T03:33:12;19.50;;;10.52;;
29574;SDS011;16507;51.046;6.406;2023-03-01T03:35:48;22.10;;;10.20;;
29574;SDS011;16507;51.046;6.406;2023-03-01T03:38:15;20.48;;;9.98;;
29574;SDS011;16507;51.046;6.406;2023-03-01T03:40:44;21.83;;;9.82;;
29574;SDS011;16507;51.046;6.406;2023-03-01T03:43:13;18.98;;;10.30;;
29574;SDS011;16507;51.046;6.406;2023-03-01T03:45:40;14.80;;;10.27;;
29574;SDS011;16507;51.046;6.406;2023-03-01T03:48:07;19.48;;;10.70;;
29574;SDS011;16507;51.046;6.406;2023-03-01T03:50:34;18.00;;;9.70;;
29574;SDS011;16507;51.046;6.406;2023-03-01T03:53:00;16.67;;;10.18;;
29574;SDS011;16507;51.046;6.406;2023-03-01T03:55:27;20.73;;;10.30;;
29574;SDS011;16507;51.046;6.406;2023-03-01T03:57:56;16.83;;;10.18;;
29574;SDS011;16507;51.046;6.406;2023-03-01T04:00:26;16.67;;;10.57;;
29574;SDS011;16507;51.046;6.406;2023-03-01T04:02:53;19.65;;;10.50;;
29574;SDS011;16507;51.046;6.406;2023-03-01T04:05:22;20.95;;;9.70;;
29574;SDS011;16507;51.046;6.406;2023-03-01T04:07:49;20.40;;;10.43;;
29574;SDS011;16507;51.046;6.406;2023-03-01T04:10:25;17.23;;;10.63;;
29574;SDS011;16507;51.046;6.406;2023-03-01T04:12:52;21.83;;;10.70;;
29574;SDS011;16507;51.046;6.406;2023-03-01T04:15:17;23.77;;;11.05;;
29574;SDS011;16507;51.046;6.406;2023-03-01T04:17:44;21.38;;;11.07;;
29574;SDS011;16507;51.046;6.406;2023-03-01T04:20:12;21.00;;;10.52;;
29574;SDS011;16507;51.046;6.406;2023-03-01T04:22:42;25.98;;;10.15;;
29574;SDS011;16507;51.046;6.406;2023-03-01T04:25:11;23.13;;;11.20;;
29574;SDS011;16507;51.046;6.406;2023-03-01T04:27:39;22.58;;;10.77;;
29574;SDS011;16507;51.046;6.406;2023-03-01T04:30:04;20.02;;;11.23;;
29574;SDS011;16507;51.046;6.406;2023-03-01T04:32:31;19.90;;;11.48;;
29574;SDS011;16507;51.046;6.406;2023-03-01T04:34:56;24.30;;;11.25;;
29574;SDS011;16507;51.046;6.406;2023-03-01T04:37:22;21.10;;;11.90;;
29574;SDS011;16507;51.046;6.406;2023-03-01T04:39:49;23.30;;;11.48;;
29574;SDS011;16507;51.046;6.406;2023-03-01T04:42:14;35.85;;;11.20;;
29574;SDS011;16507;51.046;6.406;2023-03-01T04:44:41;19.60;;;11.57;;
29574;SDS011;16507;51.046;6.406;2023-03-01T04:47:07;14.57;;;10.10;;
29574;SDS011;16507;51.046;6.406;2023-03-01T04:49:33;18.40;;;11.10;;
29574;SDS011;16507;51.046;6.406;2023-03-01T04:51:58;31.05;;;11.27;;
29574;SDS011;16507;51.046;6.406;2023-03-01T04:54:27;24.45;;;11.70;;
29574;SDS011;16507;51.046;6.406;2023-03-01T04:56:57;20.75;;;10.73;;
29574;SDS011;16507;51.046;6.406;2023-03-01T04:59:23;19.23;;;11.50;;
29574;SDS011;16507;51.046;6.406;2023-03-01T05:01:50;22.60;;;11.93;;
29574;SDS011;16507;51.046;6.406;2023-03-01T05:04:16;22.92;;;10.65;;
29574;SDS011;16507;51.046;6.406;2023-03-01T05:06:41;19.52;;;11.55;;
29574;SDS011;16507;51.046;6.406;2023-03-01T05:09:07;13.45;;;10.63;;
29574;SDS011;16507;51.046;6.406;2023-03-01T05:11:33;19.98;;;11.75;;
29574;SDS011;16507;51.046;6.406;2023-03-01T05:14:09;21.50;;;11.30;;
29574;SDS011;16507;51.046;6.406;2023-03-01T05:16:35;14.45;;;10.82;;
29574;SDS011;16507;51.046;6.406;2023-03-01T05:19:02;18.55;;;10.20;;
29574;SDS011;16507;51.046;6.406;2023-03-01T05:21:37;16.23;;;10.32;;
29574;SDS011;16507;51.046;6.406;2023-03-01T05:24:26;25.48;;;10.82;;
29574;SDS011;16507;51.046;6.406;2023-03-01T05:26:52;17.60;;;11.18;;
29574;SDS011;16507;51.046;6.406;2023-03-01T05:29:19;15.75;;;11.05;;
29574;SDS011;16507;51.046;6.406;2023-03-01T05:31:53;22.98;;;12.02;;
29574;SDS011;16507;51.046;6.406;2023-03-01T05:34:27;17.23;;;11.27;;
29574;SDS011;16507;51.046;6.406;2023-03-01T05:36:54;18.55;;;11.73;;
29574;SDS011;16507;51.046;6.406;2023-03-01T05:39:20;19.25;;;11.52;;
29574;SDS011;16507;51.046;6.406;2023-03-01T05:41:47;22.33;;;12.07;;
29574;SDS011;16507;51.046;6.406;2023-03-01T05:44:16;24.40;;;10.95;;
29574;SDS011;16507;51.046;6.406;2023-03-01T05:46:42;16.58;;;11.45;;
29574;SDS011;16507;51.046;6.406;2023-03-01T05:49:07;19.52;;;11.77;;
29574;SDS011;16507;51.046;6.406;2023-03-01T05:51:33;20.73;;;11.38;;
29574;SDS011;16507;51.046;6.406;2023-03-01T05:53:59;23.88;;;11.48;;
29574;SDS011;16507;51.046;6.406;2023-03-01T05:56:24;16.73;;;10.43;;
29574;SDS011;16507;51.046;6.406;2023-03-01T05:58:50;22.55;;;12.32;;
29574;SDS011;16507;51.046;6.406;2023-03-01T06:01:16;35.53;;;11.57;;
29574;SDS011;16507;51.046;6.406;2023-03-01T06:03:44;21.92;;;12.25;;
29574;SDS011;16507;51.046;6.406;2023-03-01T06:06:10;19.27;;;11.38;;
29574;SDS011;16507;51.046;6.406;2023-03-01T06:08:35;23.45;;;12.40;;
29574;SDS011;16507;51.046;6.406;2023-03-01T06:11:01;22.85;;;12.10;;
29574;SDS011;16507;51.046;6.406;2023-03-01T06:13:26;24.02;;;11.80;;
29574;SDS011;16507;51.046;6.406;2023-03-01T06:15:52;26.10;;;11.32;;
29574;SDS011;16507;51.046;6.406;2023-03-01T06:18:17;23.83;;;10.75;;
29574;SDS011;16507;51.046;6.406;2023-03-01T06:20:43;46.72;;;12.77;;
29574;SDS011;16507;51.046;6.406;2023-03-01T06:23:09;25.48;;;12.07;;
29574;SDS011;16507;51.046;6.406;2023-03-01T06:25:34;38.45;;;12.70;;
29574;SDS011;16507;51.046;6.406;2023-03-01T06:28:00;36.58;;;12.15;;
29574;SDS011;16507;51.046;6.406;2023-03-01T06:30:26;27.75;;;12.23;;
29574;SDS011;16507;51.046;6.406;2023-03-01T06:32:52;28.88;;;12.70;;
29574;SDS011;16507;51.046;6.406;2023-03-01T06:35:18;34.00;;;12.98;;
29574;SDS011;16507;51.046;6.406;2023-03-01T06:37:45;43.00;;;12.13;;
29574;SDS011;16507;51.046;6.406;2023-03-01T06:40:12;44.10;;;12.98;;
29574;SDS011;16507;51.046;6.406;2023-03-01T06:42:39;35.42;;;13.48;;
29574;SDS011;16507;51.046;6.406;2023-03-01T06:45:08;32.15;;;11.88;;
29574;SDS011;16507;51.046;6.406;2023-03-01T06:47:34;33.10;;;12.25;;
29574;SDS011;16507;51.046;6.406;2023-03-01T06:50:00;27.35;;;12.43;;
29574;SDS011;16507;51.046;6.406;2023-03-01T06:52:27;41.08;;;12.68;;
29574;SDS011;16507;51.046;6.406;2023-03-01T06:54:52;31.85;;;12.18;;
29574;SDS011;16507;51.046;6.406;2023-03-01T06:57:18;31.70;;;12.93;;
29574;SDS011;16507;51.046;6.406;2023-03-01T06:59:44;36.00;;;12.32;;
29574;SDS011;16507;51.046;6.406;2023-03-01T07:02:12;40.05;;;12.23;;
29574;SDS011;16507;51.046;6.406;2023-03-01T07:04:39;51.45;;;12.10;;
29574;SDS011;16507;51.046;6.406;2023-03-01T07:07:06;23.08;;;10.15;;
29574;SDS011;16507;51.046;6.406;2023-03-01T07:09:31;27.52;;;10.38;;
29574;SDS011;16507;51.046;6.406;2023-03-01T07:11:57;29.38;;;10.15;;
29574;SDS011;16507;51.046;6.406;2023-03-01T07:14:23;36.35;;;10.45;;
29574;SDS011;16507;51.046;6.406;2023-03-01T07:16:54;23.15;;;11.05;;
29574;SDS011;16507;51.046;6.406;2023-03-01T07:19:20;27.30;;;11.13;;
29574;SDS011;16507;51.046;6.406;2023-03-01T07:21:46;24.83;;;10.43;;
29574;SDS011;16507;51.046;6.406;2023-03-01T07:24:12;15.20;;;9.20;;
29574;SDS011;16507;51.046;6.406;2023-03-01T07:26:38;16.23;;;9.20;;
29574;SDS011;16507;51.046;6.406;2023-03-01T07:29:04;13.48;;;8.65;;
29574;SDS011;16507;51.046;6.406;2023-03-01T07:31:32;18.58;;;9.32;;
29574;SDS011;16507;51.046;6.406;2023-03-01T07:33:58;15.82;;;8.48;;
29574;SDS011;16507;51.046;6.406;2023-03-01T07:36:23;10.32;;;8.73;;
29574;SDS011;16507;51.046;6.406;2023-03-01T07:38:49;14.88;;;9.25;;
29574;SDS011;16507;51.046;6.406;2023-03-01T07:41:15;11.90;;;9.23;;
29574;SDS011;16507;51.046;6.406;2023-03-01T07:43:41;18.08;;;9.32;;
29574;SDS011;16507;51.046;6.406;2023-03-01T07:46:07;19.60;;;10.60;;
29574;SDS011;16507;51.046;6.406;2023-03-01T07:48:32;18.02;;;10.15;;
29574;SDS011;16507;51.046;6.406;2023-03-01T07:50:59;16.52;;;10.98;;
29574;SDS011;16507;51.046;6.406;2023-03-01T07:53:25;14.02;;;10.02;;
29574;SDS011;16507;51.046;6.406;2023-03-01T07:56:07;26.27;;;11.32;;
29574;SDS011;16507;51.046;6.406;2023-03-01T07:58:35;20.65;;;11.55;;
29574;SDS011;16507;51.046;6.406;2023-03-01T08:01:06;19.65;;;11.50;;
29574;SDS011;16507;51.046;6.406;2023-03-01T08:03:33;24.95;;;12.02;;
29574;SDS011;16507;51.046;6.406;2023-03-01T08:06:00;27.55;;;12.27;;
29574;SDS011;16507;51.046;6.406;2023-03-01T08:08:26;21.92;;;11.52;;
29574;SDS011;16507;51.046;6.406;2023-03-01T08:10:52;23.38;;;11.77;;
29574;SDS011;16507;51.046;6.406;2023-03-01T08:13:21;21.50;;;11.95;;
29574;SDS011;16507;51.046;6.406;2023-03-01T08:15:50;23.00;;;12.20;;
29574;SDS011;16507;51.046;6.406;2023-03-01T08:18:16;23.55;;;12.40;;
29574;SDS011;16507;51.046;6.406;2023-03-01T08:20:43;21.92;;;12.45;;
29574;SDS011;16507;51.046;6.406;2023-03-01T08:23:09;25.42;;;11.82;;
29574;SDS011;16507;51.046;6.406;2023-03-01T08:25:35;18.15;;;12.05;;
29574;SDS011;16507;51.046;6.406;2023-03-01T08:28:01;25.80;;;12.18;;
29574;SDS011;16507;51.046;6.406;2023-03-01T08:30:27;30.30;;;11.85;;
29574;SDS011;16507;51.046;6.406;2023-03-01T08:32:52;23.58;;;13.18;;
29574;SDS011;16507;51.046;6.406;2023-03-01T08:35:19;23.33;;;12.85;;
29574;SDS011;16507;51.046;6.406;2023-03-01T08:37:44;23.52;;;12.32;;
29574;SDS011;16507;51.046;6.406;2023-03-01T08:40:11;24.08;;;12.25;;
29574;SDS011;16507;51.046;6.406;2023-03-01T08:42:38;26.63;;;12.75;;
29574;SDS011;16507;51.046;6.406;2023-03-01T08:45:04;25.27;;;12.93;;
29574;SDS011;16507;51.046;6.406;2023-03-01T08:47:31;27.67;;;13.00;;
29574;SDS011;16507;51.046;6.406;2023-03-01T08:49:58;21.60;;;11.88;;
29574;SDS011;16507;51.046;6.406;2023-03-01T08:52:24;22.98;;;12.20;;
29574;SDS011;16507;51.046;6.406;2023-03-01T08:54:52;34.15;;;12.38;;
29574;SDS011;16507;51.046;6.406;2023-03-01T08:57:18;30.52;;;13.55;;
29574;SDS011;16507;51.046;6.406;2023-03-01T08:59:43;32.08;;;13.57;;
29574;SDS011;16507;51.046;6.406;2023-03-01T09:02:14;23.08;;;13.27;;
29574;SDS011;16507;51.046;6.406;2023-03-01T09:04:41;23.80;;;13.45;;
29574;SDS011;16507;51.046;6.406;2023-03-01T09:07:07;25.48;;;12.95;;
29574;SDS011;16507;51.046;6.406;2023-03-01T09:09:33;27.48;;;12.27;;
29574;SDS011;16507;51.046;6.406;2023-03-01T09:12:00;29.63;;;12.23;;
29574;SDS011;16507;51.046;6.406;2023-03-01T09:14:26;37.28;;;13.45;;
29574;SDS011;16507;51.046;6.406;2023-03-01T09:16:52;30.58;;;12.55;;
29574;SDS011;16507;51.046;6.406;2023-03-01T09:19:18;28.23;;;12.68;;
29574;SDS011;16507;51.046;6.406;2023-03-01T09:21:43;30.38;;;13.70;;
29574;SDS011;16507;51.046;6.406;2023-03-01T09:24:17;27.55;;;12.13;;
29574;SDS011;16507;51.046;6.406;2023-03-01T09:26:44;28.90;;;12.85;;
29574;SDS011;16507;51.046;6.406;2023-03-01T09:29:13;28.20;;;12.90;;
29574;SDS011;16507;51.046;6.406;2023-03-01T09:31:40;25.25;;;12.55;;
29574;SDS011;16507;51.046;6.406;2023-03-01T09:34:06;31.63;;;13.00;;
29574;SDS011;16507;51.046;6.406;2023-03-01T09:36:32;22.77;;;9.13;;
29574;SDS011;16507;51.046;6.406;2023-03-01T09:38:58;18.63;;;12.23;;
29574;SDS011;16507;51.046;6.406;2023-03-01T09:47:00;28.65;;;12.70;;
29574;SDS011;16507;51.046;6.406;2023-03-01T09:49:27;27.80;;;14.27;;
29574;SDS011;16507;51.046;6.406;2023-03-01T09:54:21;30.27;;;12.98;;
29574;SDS011;16507;51.046;6.406;2023-03-01T09:56:53;31.00;;;13.70;;
29574;SDS011;16507;51.046;6.406;2023-03-01T10:00:25;21.88;;;12.02;;
29574;SDS011;16507;51.046;6.406;2023-03-01T10:02:43;20.17;;;11.88;;
29574;SDS011;16507;51.046;6.406;2023-03-01T10:05:23;28.40;;;13.93;;
29574;SDS011;16507;51.046;6.406;2023-03-01T10:10:55;21.75;;;12.55;;
29574;SDS011;16507;51.046;6.406;2023-03-01T10:13:31;22.02;;;13.23;;
29574;SDS011;16507;51.046;6.406;2023-03-01T10:16:14;30.10;;;13.68;;
29574;SDS011;16507;51.046;6.406;2023-03-01T10:18:46;31.77;;;14.55;;
29574;SDS011;16507;51.046;6.406;2023-03-01T10:21:18;22.15;;;12.80;;
29574;SDS011;16507;51.046;6.406;2023-03-01T10:23:45;19.70;;;12.45;;
29574;SDS011;16507;51.046;6.406;2023-03-01T10:29:10;18.58;;;11.27;;
29574;SDS011;16507;51.046;6.406;2023-03-01T10:31:47;28.98;;;13.82;;
29574;SDS011;16507;51.046;6.406;2023-03-01T10:34:15;20.58;;;12.68;;
29574;SDS011;16507;51.046;6.406;2023-03-01T10:36:49;17.05;;;11.70;;
29574;SDS011;16507;51.046;6.406;2023-03-01T10:39:17;18.90;;;12.50;;
29574;SDS011;16507;51.046;6.406;2023-03-01T10:47:22;18.20;;;11.05;;
29574;SDS011;16507;51.046;6.406;2023-03-01T10:50:17;20.30;;;12.30;;
29574;SDS011;16507;51.046;6.406;2023-03-01T10:52:55;20.23;;;11.75;;
29574;SDS011;16507;51.046;6.406;2023-03-01T10:55:29;17.67;;;11.70;;
29574;SDS011;16507;51.046;6.406;2023-03-01T10:58:07;17.08;;;11.50;;
29574;SDS011;16507;51.046;6.406;2023-03-01T11:00:49;18.05;;;11.68;;
29574;SDS011;16507;51.046;6.406;2023-03-01T11:03:22;14.50;;;11.18;;
29574;SDS011;16507;51.046;6.406;2023-03-01T11:05:51;22.13;;;12.00;;
29574;SDS011;16507;51.046;6.406;2023-03-01T11:08:36;24.17;;;11.55;;
29574;SDS011;16507;51.046;6.406;2023-03-01T11:11:22;19.20;;;11.15;;
29574;SDS011;16507;51.046;6.406;2023-03-01T11:14:00;17.27;;;10.60;;
29574;SDS011;16507;51.046;6.406;2023-03-01T11:21:34;19.70;;;11.88;;
29574;SDS011;16507;51.046;6.406;2023-03-01T11:24:05;15.27;;;10.45;;
29574;SDS011;16507;51.046;6.406;2023-03-01T11:29:07;15.57;;;10.45;;
29574;SDS011;16507;51.046;6.406;2023-03-01T11:32:01;17.77;;;10.35;;
29574;SDS011;16507;51.046;6.406;2023-03-01T11:37:09;13.63;;;9.38;;
29574;SDS011;16507;51.046;6.406;2023-03-01T11:39:50;26.27;;;9.80;;
29574;SDS011;16507;51.046;6.406;2023-03-01T11:42:42;26.02;;;10.52;;
29574;SDS011;16507;51.046;6.406;2023-03-01T11:45:37;23.92;;;10.93;;
29574;SDS011;16507;51.046;6.406;2023-03-01T11:48:38;26.00;;;10.65;;
29574;SDS011;16507;51.046;6.406;2023-03-01T11:51:20;20.98;;;9.40;;
29574;SDS011;16507;51.046;6.406;2023-03-01T12:00:10;11.82;;;8.98;;
29574;SDS011;16507;51.046;6.406;2023-03-01T12:05:23;14.05;;;7.95;;
29574;SDS011;16507;51.046;6.406;2023-03-01T12:11:20;14.23;;;9.68;;
29574;SDS011;16507;51.046;6.406;2023-03-01T12:13:51;17.33;;;9.68;;
29574;SDS011;16507;51.046;6.406;2023-03-01T12:24:46;15.10;;;9.32;;
29574;SDS011;16507;51.046;6.406;2023-03-01T12:27:30;10.77;;;6.35;;
29574;SDS011;16507;51.046;6.406;2023-03-01T12:30:04;13.23;;;8.65;;
29574;SDS011;16507;51.046;6.406;2023-03-01T12:32:55;13.00;;;8.65;;
29574;SDS011;16507;51.046;6.406;2023-03-01T12:42:03;11.75;;;8.93;;
29574;SDS011;16507;51.046;6.406;2023-03-01T12:47:09;13.60;;;9.23;;
29574;SDS011;16507;51.046;6.406;2023-03-01T12:49:57;11.35;;;7.70;;
29574;SDS011;16507;51.046;6.406;2023-03-01T13:04:18;14.68;;;9.65;;
29574;SDS011;16507;51.046;6.406;2023-03-01T13:07:07;14.18;;;9.30;;
29574;SDS011;16507;51.046;6.406;2023-03-01T13:09:41;11.63;;;8.95;;
29574;SDS011;16507;51.046;6.406;2023-03-01T13:15:34;21.40;;;8.82;;
29574;SDS011;16507;51.046;6.406;2023-03-01T13:33:41;10.75;;;7.20;;
29574;SDS011;16507;51.046;6.406;2023-03-01T13:46:57;9.57;;;6.30;;
29574;SDS011;16507;51.046;6.406;2023-03-01T13:49:44;10.77;;;6.47;;
29574;SDS011;16507;51.046;6.406;2023-03-01T13:52:35;9.07;;;5.47;;
29574;SDS011;16507;51.046;6.406;2023-03-01T13:57:42;15.60;;;6.47;;
29574;SDS011;16507;51.046;6.406;2023-03-01T14:00:34;8.50;;;6.10;;
29574;SDS011;16507;51.046;6.406;2023-03-01T14:05:30;5.75;;;5.22;;
29574;SDS011;16507;51.046;6.406;2023-03-01T14:07:56;7.47;;;5.70;;
29574;SDS011;16507;51.046;6.406;2023-03-01T14:10:22;6.85;;;6.10;;
29574;SDS011;16507;51.046;6.406;2023-03-01T14:16:10;11.65;;;5.63;;
29574;SDS011;16507;51.046;6.406;2023-03-01T14:21:29;22.15;;;6.43;;
29574;SDS011;16507;51.046;6.406;2023-03-01T14:23:55;10.27;;;6.07;;
29574;SDS011;16507;51.046;6.406;2023-03-01T14:26:22;12.27;;;5.90;;
29574;SDS011;16507;51.046;6.406;2023-03-01T14:28:49;5.05;;;4.57;;
29574;SDS011;16507;51.046;6.406;2023-03-01T14:31:32;10.20;;;6.05;;
29574;SDS011;16507;51.046;6.406;2023-03-01T14:34:01;9.40;;;5.78;;
29574;SDS011;16507;51.046;6.406;2023-03-01T14:36:28;10.93;;;5.18;;
29574;SDS011;16507;51.046;6.406;2023-03-01T14:38:55;7.57;;;5.97;;
29574;SDS011;16507;51.046;6.406;2023-03-01T14:41:29;9.68;;;6.55;;
29574;SDS011;16507;51.046;6.406;2023-03-01T14:43:59;6.70;;;6.00;;
29574;SDS011;16507;51.046;6.406;2023-03-01T14:46:32;15.18;;;6.28;;
29574;SDS011;16507;51.046;6.406;2023-03-01T14:49:23;7.72;;;6.28;;
29574;SDS011;16507;51.046;6.406;2023-03-01T14:52:02;8.40;;;6.30;;
29574;SDS011;16507;51.046;6.406;2023-03-01T14:54:42;10.85;;;6.18;;
29574;SDS011;16507;51.046;6.406;2023-03-01T14:57:14;7.57;;;5.88;;
29574;SDS011;16507;51.046;6.406;2023-03-01T14:59:42;5.72;;;5.13;;
29574;SDS011;16507;51.046;6.406;2023-03-01T15:02:11;7.65;;;5.78;;
29574;SDS011;16507;51.046;6.406;2023-03-01T15:04:42;17.05;;;6.22;;
29574;SDS011;16507;51.046;6.406;2023-03-01T15:07:11;11.52;;;5.65;;
29574;SDS011;16507;51.046;6.406;2023-03-01T15:09:39;6.65;;;5.63;;
29574;SDS011;16507;51.046;6.406;2023-03-01T15:15:26;6.45;;;5.85;;
29574;SDS011;16507;51.046;6.406;2023-03-01T15:17:58;10.98;;;6.28;;
29574;SDS011;16507;51.046;6.406;2023-03-01T15:20:26;14.98;;;6.60;;
29574;SDS011;16507;51.046;6.406;2023-03-01T15:22:54;10.27;;;5.90;;
29574;SDS011;16507;51.046;6.406;2023-03-01T15:25:23;12.93;;;5.88;;
29574;SDS011;16507;51.046;6.406;2023-03-01T15:27:51;7.85;;;5.32;;
29574;SDS011;16507;51.046;6.406;2023-03-01T15:30:22;6.47;;;5.85;;
29574;SDS011;16507;51.046;6.406;2023-03-01T15:41:19;9.00;;;6.32;;
29574;SDS011;16507;51.046;6.406;2023-03-01T15:43:56;9.23;;;6.32;;
29574;SDS011;16507;51.046;6.406;2023-03-01T15:46:30;14.50;;;6.35;;
29574;SDS011;16507;51.046;6.406;2023-03-01T15:48:59;22.48;;;6.53;;
29574;SDS011;16507;51.046;6.406;2023-03-01T15:51:29;10.32;;;8.02;;
29574;SDS011;16507;51.046;6.406;2023-03-01T15:53:57;10.60;;;6.57;;
29574;SDS011;16507;51.046;6.406;2023-03-01T15:56:25;15.23;;;6.75;;
29574;SDS011;16507;51.046;6.406;2023-03-01T15:58:50;18.20;;;6.32;;
29574;SDS011;16507;51.046;6.406;2023-03-01T16:01:16;11.23;;;5.80;;
29574;SDS011;16507;51.046;6.406;2023-03-01T16:03:42;9.40;;;6.45;;
29574;SDS011;16507;51.046;6.406;2023-03-01T16:06:09;9.38;;;6.05;;
29574;SDS011;16507;51.046;6.406;2023-03-01T16:08:35;14.18;;;7.07;;
29574;SDS011;16507;51.046;6.406;2023-03-01T16:11:02;10.23;;;6.55;;
29574;SDS011;16507;51.046;6.406;2023-03-01T16:13:30;9.07;;;6.20;;
29574;SDS011;16507;51.046;6.406;2023-03-01T16:15:57;12.75;;;6.57;;
29574;SDS011;16507;51.046;6.406;2023-03-01T16:18:23;11.70;;;5.90;;
29574;SDS011;16507;51.046;6.406;2023-03-01T16:20:49;16.65;;;7.13;;
29574;SDS011;16507;51.046;6.406;2023-03-01T16:23:14;14.45;;;6.57;;
29574;SDS011;16507;51.046;6.406;2023-03-01T16:25:40;10.75;;;6.43;;
29574;SDS011;16507;51.046;6.406;2023-03-01T16:28:06;7.03;;;4.75;;
29574;SDS011;16507;51.046;6.406;2023-03-01T16:30:36;11.30;;;6.50;;
29574;SDS011;16507;51.046;6.406;2023-03-01T16:33:02;7.70;;;6.38;;
29574;SDS011;16507;51.046;6.406;2023-03-01T16:35:31;10.60;;;6.47;;
29574;SDS011;16507;51.046;6.406;2023-03-01T16:37:57;7.35;;;5.85;;
29574;SDS011;16507;51.046;6.406;2023-03-01T16:40:27;6.70;;;6.07;;
29574;SDS011;16507;51.046;6.406;2023-03-01T16:42:54;9.70;;;6.40;;
29574;SDS011;16507;51.046;6.406;2023-03-01T16:45:24;16.27;;;7.00;;
29574;SDS011;16507;51.046;6.406;2023-03-01T16:47:51;12.95;;;6.50;;
29574;SDS011;16507;51.046;6.406;2023-03-01T16:50:17;6.95;;;6.25;;
29574;SDS011;16507;51.046;6.406;2023-03-01T16:52:43;12.40;;;6.10;;
29574;SDS011;16507;51.046;6.406;2023-03-01T16:55:09;9.25;;;6.32;;
29574;SDS011;16507;51.046;6.406;2023-03-01T16:57:35;12.27;;;6.53;;
29574;SDS011;16507;51.046;6.406;2023-03-01T17:00:02;12.68;;;7.13;;
29574;SDS011;16507;51.046;6.406;2023-03-01T17:02:32;10.95;;;6.47;;
29574;SDS011;16507;51.046;6.406;2023-03-01T17:04:58;14.50;;;6.38;;